Time;durP1;ratioP1;P1;durP2;ratioP2;P2;SDS_P1;SDS_P2;PMS_P1;PMS_P2;Temp;Humidity;BMP_temperature;BMP_pressure;BME280_temperature;BME280_humidity;BME280_pressure;Samples;Min_cycle;Max_cycle;Signal;HPM_P1;HPM_P2
2024/02/29 00:01:02;;;;;;;;;;;;;;;10.84;55.56;100165.31;5032481;28;19917;-84
2024/02/29 00:03:27;;;;;;;;;;;;;;;10.83;55.82;100175.06;5032435;28;19913;-83
2024/02/29 00:05:54;;;;;;;;;;;;;;;10.74;55.10;100169.94;5031092;28;19917;-83
2024/02/29 00:08:19;;;;;;;;;;;;;;;10.66;55.77;100173.41;5031214;28;19921;-83
2024/02/29 00:10:44;;;;;;;;;;;;;;;10.58;55.85;100177.84;5032467;28;19963;-83
2024/02/29 00:13:09;;;;;;;;;;;;;;;10.56;56.15;100170.09;5032231;28;19946;-83
2024/02/29 00:15:35;;;;;;;;;;;;;;;10.55;55.62;100164.97;5031031;28;20298;-83
2024/02/29 00:18:00;;;;;;;;;;;;;;;10.47;55.66;100179.81;5032015;28;19974;-83
2024/02/29 00:20:25;;;;;;;;;;;;;;;10.43;56.42;100172.38;5030624;28;19996;-83
2024/02/29 00:22:50;;;;;;;;;;;;;;;10.44;56.17;100174.03;5032094;28;19937;-84
2024/02/29 00:25:16;;;;;;;;;;;;;;;10.39;55.99;100177.13;5030644;28;19914;-83
2024/02/29 00:27:41;;;;;;;;;;;;;;;10.34;56.16;100168.03;5030623;28;20424;-83
2024/02/29 00:30:06;;;;;;;;;;;;;;;10.26;56.42;100168.00;5031961;28;19913;-83
2024/02/29 00:32:32;;;;;;;;;;;;;;;10.24;56.52;100168.16;5031880;28;19987;-83
2024/02/29 00:34:57;;;;;;;;;;;;;;;10.26;56.43;100165.38;5030520;28;20014;-83
2024/02/29 00:37:22;;;;;;;;;;;;;;;10.23;56.62;100169.16;5030482;28;20383;-83
2024/02/29 00:39:48;;;;;;;;;;;;;;;10.29;55.93;100165.06;5031734;28;20414;-83
2024/02/29 00:42:13;;;;;;;;;;;;;;;10.34;55.67;100168.03;5031679;28;19913;-83
2024/02/29 00:44:39;;;;;;;;;;;;;;;10.34;55.58;100176.78;5030364;28;19917;-83
2024/02/29 00:47:04;;;;;;;;;;;;;;;10.37;55.84;100173.81;5031474;28;20288;-83
2024/02/29 00:49:30;;;;;;;;;;;;;;;10.36;55.87;100173.97;5030422;28;19913;-84
2024/02/29 00:51:56;;;;;;;;;;;;;;;10.32;55.99;100178.75;5032099;28;19913;-83
2024/02/29 00:54:24;;;;;;;;;;;;;;;10.32;56.24;100177.94;5031603;28;19978;-83
2024/02/29 00:56:49;;;;;;;;;;;;;;;10.29;55.85;100172.97;5030137;28;20032;-84
2024/02/29 00:59:15;;;;;;;;;;;;;;;10.25;56.40;100167.19;5029975;28;19913;-84
2024/02/29 01:01:40;;;;;;;;;;;;;;;10.24;56.28;100170.81;5030234;28;19920;-84
2024/02/29 01:04:05;;;;;;;;;;;;;;;10.21;56.08;100170.31;5031513;28;20402;-83
2024/02/29 01:06:30;;;;;;;;;;;;;;;10.15;55.86;100167.28;5031498;28;19913;-84
2024/02/29 01:08:56;;;;;;;;;;;;;;;10.07;56.21;100161.97;5031879;28;19918;-83
2024/02/29 01:11:21;;;;;;;;;;;;;;;10.04;56.56;100175.50;5038001;28;20286;-84
2024/02/29 01:13:46;;;;;;;;;;;;;;;9.96;56.40;100167.53;5038415;28;19921;-83
2024/02/29 01:16:12;;;;;;;;;;;;;;;9.98;55.92;100164.75;5038013;28;19955;-83
2024/02/29 01:18:37;;;;;;;;;;;;;;;9.97;56.15;100160.47;5037244;28;19913;-83
2024/02/29 01:21:02;;;;;;;;;;;;;;;9.96;56.06;100164.91;5037964;28;19982;-83
2024/02/29 01:23:27;;;;;;;;;;;;;;;9.93;56.42;100173.13;5037962;28;19913;-83
2024/02/29 01:25:53;;;;;;;;;;;;;;;9.94;56.48;100173.97;5037729;28;19916;-83
2024/02/29 01:28:18;;;;;;;;;;;;;;;9.91;56.01;100177.75;5036388;28;19944;-83
2024/02/29 01:30:43;;;;;;;;;;;;;;;9.92;56.12;100171.50;5036385;28;19913;-83
2024/02/29 01:33:08;;;;;;;;;;;;;;;9.92;56.02;100178.56;5036649;28;20405;-83
2024/02/29 01:35:34;;;;;;;;;;;;;;;9.86;55.94;100177.41;5036360;28;19919;-84
2024/02/29 01:37:59;;;;;;;;;;;;;;;9.84;56.26;100179.38;5037909;28;20378;-83
2024/02/29 01:40:24;;;;;;;;;;;;;;;9.85;56.04;100175.75;5036549;28;19991;-84
2024/02/29 01:42:50;;;;;;;;;;;;;;;9.83;56.26;100180.34;5037727;28;19920;-83
2024/02/29 01:45:16;;;;;;;;;;;;;;;9.79;56.21;100179.00;5037720;28;19920;-84
2024/02/29 01:47:42;;;;;;;;;;;;;;;9.70;56.40;100177.31;5037649;28;19917;-83
2024/02/29 01:50:08;;;;;;;;;;;;;;;9.64;56.51;100177.91;5037612;28;19919;-83
2024/02/29 01:52:37;;;;;;;;;;;;;;;9.62;56.72;100167.53;5037455;28;19920;-85
2024/02/29 01:55:05;;;;;;;;;;;;;;;9.59;56.55;100173.09;5036059;28;19999;-84
2024/02/29 01:57:31;;;;;;;;;;;;;;;9.57;56.61;100172.44;5037359;28;19914;-83
2024/02/29 01:59:56;;;;;;;;;;;;;;;9.53;56.73;100184.28;5037594;28;20004;-84
2024/02/29 02:02:21;;;;;;;;;;;;;;;9.56;56.63;100181.34;5037261;28;19928;-84
2024/02/29 02:04:47;;;;;;;;;;;;;;;9.59;56.56;100196.00;5036091;28;19913;-83
2024/02/29 02:07:12;;;;;;;;;;;;;;;9.54;56.58;100185.94;5037325;28;19995;-84
2024/02/29 02:09:41;;;;;;;;;;;;;;;9.51;56.38;100189.69;5036156;28;19913;-83
2024/02/29 02:12:07;;;;;;;;;;;;;;;9.48;56.76;100187.38;5036087;28;19913;-84
2024/02/29 02:14:32;;;;;;;;;;;;;;;9.45;56.79;100187.69;5037175;28;19928;-83
2024/02/29 02:16:57;;;;;;;;;;;;;;;9.43;56.96;100191.47;5036088;28;19920;-83
2024/02/29 02:19:23;;;;;;;;;;;;;;;9.41;56.92;100194.25;5037429;28;20330;-84
2024/02/29 02:21:48;;;;;;;;;;;;;;;9.42;56.90;100200.34;5033276;28;19917;-83
2024/02/29 02:24:13;;;;;;;;;;;;;;;9.37;57.29;100192.91;5033146;28;19913;-84
2024/02/29 02:26:38;;;;;;;;;;;;;;;9.35;56.98;100192.22;5033265;28;19913;-83
2024/02/29 02:29:04;;;;;;;;;;;;;;;9.34;56.95;100189.75;5034077;28;19921;-83
2024/02/29 02:31:29;;;;;;;;;;;;;;;9.37;56.92;100192.06;5034218;28;19913;-83
2024/02/29 02:33:55;;;;;;;;;;;;;;;9.37;57.03;100192.06;5032838;28;20402;-84
2024/02/29 02:36:21;;;;;;;;;;;;;;;9.34;57.16;100197.66;5034143;28;19920;-83
2024/02/29 02:38:46;;;;;;;;;;;;;;;9.31;57.02;100201.44;5032849;28;20008;-83
2024/02/29 02:41:11;;;;;;;;;;;;;;;9.30;57.28;100199.78;5034159;28;19961;-83
2024/02/29 02:43:36;;;;;;;;;;;;;;;9.27;57.13;100200.09;5034140;28;19920;-83
2024/02/29 02:46:02;;;;;;;;;;;;;;;9.30;57.03;100198.94;5032536;28;20417;-84
2024/02/29 02:48:27;;;;;;;;;;;;;;;9.27;56.96;100199.25;5033052;28;20481;-84
2024/02/29 02:50:52;;;;;;;;;;;;;;;9.24;57.08;100201.22;5033891;28;20405;-84
2024/02/29 02:53:18;;;;;;;;;;;;;;;9.22;57.27;100211.09;5033809;28;19924;-84
2024/02/29 02:55:43;;;;;;;;;;;;;;;9.19;57.05;100210.56;5033610;28;19913;-85
2024/02/29 02:58:08;;;;;;;;;;;;;;;9.14;57.01;100211.03;5032233;28;19921;-83
2024/02/29 03:00:34;;;;;;;;;;;;;;;9.07;57.10;100214.41;5033469;28;19913;-84
2024/02/29 03:03:00;;;;;;;;;;;;;;;9.06;57.33;100216.22;5032207;28;19921;-84
2024/02/29 03:05:26;;;;;;;;;;;;;;;9.05;57.08;100206.66;5033679;28;19924;-83
2024/02/29 03:07:51;;;;;;;;;;;;;;;8.98;57.49;100199.53;5033524;28;19917;-84
2024/02/29 03:10:16;;;;;;;;;;;;;;;9.01;57.23;100192.16;5031988;28;20353;-83
2024/02/29 03:12:43;;;;;;;;;;;;;;;8.99;57.40;100198.53;5033356;28;19913;-84
2024/02/29 03:15:08;;;;;;;;;;;;;;;8.98;57.51;100189.81;5033324;28;19913;-83
2024/02/29 03:17:33;;;;;;;;;;;;;;;8.98;57.71;100191.63;5031963;28;19967;-84
2024/02/29 03:19:59;;;;;;;;;;;;;;;8.94;57.64;100195.53;5033309;28;20366;-84
2024/02/29 03:22:24;;;;;;;;;;;;;;;8.93;57.30;100196.50;5033270;28;20003;-84
2024/02/29 03:24:51;;;;;;;;;;;;;;;8.98;57.22;100191.63;5032258;28;20366;-84
2024/02/29 03:27:16;;;;;;;;;;;;;;;8.97;57.12;100193.44;5031816;28;19971;-83
2024/02/29 03:29:42;;;;;;;;;;;;;;;9.00;57.25;100198.38;5033040;28;19913;-82
2024/02/29 03:32:07;;;;;;;;;;;;;;;9.02;57.10;100200.88;5032791;28;19913;-83
2024/02/29 03:34:32;;;;;;;;;;;;;;;9.01;57.17;100204.47;5032067;28;19995;-84
2024/02/29 03:36:58;;;;;;;;;;;;;;;8.98;57.31;100199.53;5032818;28;20287;-83
2024/02/29 03:39:23;;;;;;;;;;;;;;;8.93;57.45;100201.78;5032837;28;19963;-84
2024/02/29 03:41:48;;;;;;;;;;;;;;;8.91;57.79;100199.25;5031481;28;20310;-85
2024/02/29 03:44:13;;;;;;;;;;;;;;;8.87;57.68;100196.09;5032609;28;19967;-84
2024/02/29 03:46:39;;;;;;;;;;;;;;;8.89;57.79;100202.06;5032476;28;20375;-84
2024/02/29 03:49:04;;;;;;;;;;;;;;;8.88;57.49;100204.84;5032635;28;19929;-84
2024/02/29 03:51:30;;;;;;;;;;;;;;;8.91;57.64;100197.47;5032735;28;19920;-83
2024/02/29 03:53:56;;;;;;;;;;;;;;;8.96;57.80;100201.47;5032668;28;19913;-83
2024/02/29 03:56:21;;;;;;;;;;;;;;;8.96;57.78;100198.84;5032704;28;19919;-84
2024/02/29 03:58:46;;;;;;;;;;;;;;;8.98;57.91;100202.16;5031177;28;19913;-83
2024/02/29 04:01:11;;;;;;;;;;;;;;;9.04;57.53;100202.38;5031006;28;20020;-84
2024/02/29 04:03:40;;;;;;;;;;;;;;;9.04;57.66;100210.28;5032299;28;19913;-83
2024/02/29 04:06:06;;;;;;;;;;;;;;;9.00;57.64;100205.47;5031041;28;20387;-84
2024/02/29 04:08:32;;;;;;;;;;;;;;;9.00;58.15;100216.81;5030769;28;19925;-83
2024/02/29 04:10:57;;;;;;;;;;;;;;;9.03;57.30;100210.44;5032026;28;19905;-84
2024/02/29 04:13:23;;;;;;;;;;;;;;;9.00;57.31;100197.56;5032253;28;20318;-84
2024/02/29 04:15:48;;;;;;;;;;;;;;;8.99;57.41;100204.63;5030969;28;19929;-84
2024/02/29 04:18:13;;;;;;;;;;;;;;;8.91;57.32;100202.72;5030832;28;20062;-83
2024/02/29 04:20:39;;;;;;;;;;;;;;;8.86;57.43;100205.00;5031305;28;19913;-82
2024/02/29 04:23:04;;;;;;;;;;;;;;;8.89;57.36;100211.75;5032071;28;19913;-83
2024/02/29 04:25:29;;;;;;;;;;;;;;;8.88;57.33;100208.28;5032283;28;19914;-83
2024/02/29 04:27:55;;;;;;;;;;;;;;;8.84;57.35;100209.56;5032001;28;19952;-84
2024/02/29 04:30:20;;;;;;;;;;;;;;;8.83;57.20;100213.19;5032071;28;19928;-84
2024/02/29 04:32:45;;;;;;;;;;;;;;;8.84;57.12;100201.69;5031987;28;19913;-83
2024/02/29 04:35:11;;;;;;;;;;;;;;;8.81;57.47;100204.63;5031840;28;19920;-82
2024/02/29 04:37:37;;;;;;;;;;;;;;;8.81;57.63;100216.94;5030557;28;19917;-83
2024/02/29 04:40:07;;;;;;;;;;;;;;;8.79;58.24;100211.84;5031751;28;20359;-84
2024/02/29 04:42:32;;;;;;;;;;;;;;;8.71;59.35;100213.56;5031790;28;19921;-83
2024/02/29 04:44:57;;;;;;;;;;;;;;;8.62;59.54;100223.19;5030124;28;19909;-84
2024/02/29 04:47:23;;;;;;;;;;;;;;;8.52;59.50;100214.53;5030247;28;20409;-83
2024/02/29 04:49:48;;;;;;;;;;;;;;;8.44;60.07;100217.91;5030327;28;19936;-83
2024/02/29 04:52:13;;;;;;;;;;;;;;;8.44;60.55;100210.00;5031542;28;19913;-84
2024/02/29 04:54:39;;;;;;;;;;;;;;;8.46;59.70;100210.69;5031556;28;19913;-83
2024/02/29 04:57:04;;;;;;;;;;;;;;;8.42;60.53;100214.59;5031527;28;19917;-83
2024/02/29 04:59:31;;;;;;;;;;;;;;;8.36;60.61;100222.25;5031524;28;20000;-82
2024/02/29 05:01:56;;;;;;;;;;;;;;;8.29;60.87;100225.44;5029963;28;19928;-85
2024/02/29 05:04:22;;;;;;;;;;;;;;;8.29;61.13;100230.69;5030131;28;19988;-84
2024/02/29 05:06:47;;;;;;;;;;;;;;;8.28;60.96;100233.47;5031384;28;19944;-85
2024/02/29 05:09:12;;;;;;;;;;;;;;;8.27;61.26;100235.28;5031296;28;20361;-84
2024/02/29 05:11:37;;;;;;;;;;;;;;;8.26;61.27;100230.16;5031286;28;19983;-84
2024/02/29 05:14:03;;;;;;;;;;;;;;;8.27;62.15;100240.53;5030138;28;19921;-83
2024/02/29 05:16:28;;;;;;;;;;;;;;;8.27;60.92;100237.06;5031351;28;19917;-83
2024/02/29 05:18:54;;;;;;;;;;;;;;;8.24;61.68;100247.88;5031452;28;19920;-84
2024/02/29 05:21:20;;;;;;;;;;;;;;;8.27;61.33;100242.34;5030057;28;19917;-84
2024/02/29 05:23:47;;;;;;;;;;;;;;;8.32;61.37;100244.53;5030168;28;19920;-83
2024/02/29 05:26:12;;;;;;;;;;;;;;;8.34;61.82;100251.31;5031315;28;19921;-83
2024/02/29 05:28:37;;;;;;;;;;;;;;;8.37;61.08;100255.47;5030099;28;19970;-84
2024/02/29 05:31:03;;;;;;;;;;;;;;;8.35;61.47;100250.34;5031372;28;20318;-84
2024/02/29 05:33:29;;;;;;;;;;;;;;;8.36;61.34;100252.00;5031238;28;19924;-84
2024/02/29 05:35:54;;;;;;;;;;;;;;;8.36;61.56;100253.81;5031202;28;19913;-83
2024/02/29 05:38:19;;;;;;;;;;;;;;;8.36;61.55;100246.75;5031117;28;19913;-84
2024/02/29 05:40:44;;;;;;;;;;;;;;;8.36;62.32;100251.19;5031144;28;19913;-84
2024/02/29 05:43:10;;;;;;;;;;;;;;;8.41;61.32;100262.94;5031097;28;19921;-84
2024/02/29 05:45:35;;;;;;;;;;;;;;;8.42;61.86;100261.13;5029830;28;19955;-83
2024/02/29 05:48:01;;;;;;;;;;;;;;;8.42;60.98;100261.94;5029754;28;19917;-84
2024/02/29 05:50:26;;;;;;;;;;;;;;;8.42;62.53;100261.13;5031235;28;19913;-83
2024/02/29 05:52:52;;;;;;;;;;;;;;;8.43;61.92;100266.22;5031346;28;19920;-83
2024/02/29 05:55:17;;;;;;;;;;;;;;;8.44;61.75;100261.81;5029791;28;20009;-84
2024/02/29 05:57:42;;;;;;;;;;;;;;;8.48;61.59;100256.09;5033918;28;19967;-83
2024/02/29 06:00:08;;;;;;;;;;;;;;;8.47;62.35;100261.50;5034603;28;19924;-84
2024/02/29 06:02:33;;;;;;;;;;;;;;;8.50;61.69;100263.84;5033145;28;20345;-84
2024/02/29 06:04:59;;;;;;;;;;;;;;;8.54;61.91;100260.78;5033388;28;19920;-84
2024/02/29 06:07:24;;;;;;;;;;;;;;;8.60;61.81;100254.91;5033233;28;19917;-84
2024/02/29 06:09:50;;;;;;;;;;;;;;;8.70;61.68;100264.56;5033116;28;19913;-84
2024/02/29 06:12:15;;;;;;;;;;;;;;;8.77;61.27;100266.44;5034383;28;20429;-84
2024/02/29 06:14:40;;;;;;;;;;;;;;;8.81;60.48;100261.72;5034293;28;20055;-83
2024/02/29 06:17:07;;;;;;;;;;;;;;;8.77;61.06;100260.34;5034235;28;19959;-84
2024/02/29 06:19:38;;;;;;;;;;;;;;;8.78;60.67;100259.38;5034502;28;20398;-83
2024/02/29 06:22:03;;;;;;;;;;;;;;;8.74;61.07;100258.84;5033110;28;19979;-84
2024/02/29 06:24:29;;;;;;;;;;;;;;;8.78;61.48;100257.56;5034527;28;20386;-84
2024/02/29 06:26:54;;;;;;;;;;;;;;;8.83;60.89;100265.84;5034162;28;19913;-84
2024/02/29 06:29:19;;;;;;;;;;;;;;;8.88;61.36;100265.41;5034217;28;19917;-84
2024/02/29 06:31:47;;;;;;;;;;;;;;;8.91;61.08;100273.84;5034454;28;20305;-84
2024/02/29 06:34:12;;;;;;;;;;;;;;;8.93;60.76;100275.53;5033916;28;20313;-83
2024/02/29 06:36:37;;;;;;;;;;;;;;;8.93;60.78;100257.09;5034130;28;19917;-83
2024/02/29 06:39:07;;;;;;;;;;;;;;;8.97;61.34;100266.34;5033661;28;19920;-84
2024/02/29 06:41:33;;;;;;;;;;;;;;;9.03;60.56;100260.47;5033900;28;19913;-83
2024/02/29 06:43:58;;;;;;;;;;;;;;;9.07;59.85;100264.47;5033709;28;19913;-83
2024/02/29 06:46:23;;;;;;;;;;;;;;;9.02;60.69;100264.91;5033625;28;20406;-83
2024/02/29 06:48:48;;;;;;;;;;;;;;;9.02;61.23;100261.44;5033558;28;19928;-83
2024/02/29 06:51:14;;;;;;;;;;;;;;;9.14;59.99;100260.25;5032526;28;19917;-84
2024/02/29 06:53:39;;;;;;;;;;;;;;;9.03;60.04;100257.84;5033853;28;19913;-83
2024/02/29 06:56:04;;;;;;;;;;;;;;;9.05;59.73;100266.41;5033742;28;19913;-85
2024/02/29 06:58:32;;;;;;;;;;;;;;;9.06;60.30;100263.63;5033648;28;19913;-83
2024/02/29 07:00:58;;;;;;;;;;;;;;;9.03;60.30;100266.56;5033553;28;20369;-84
2024/02/29 07:03:23;;;;;;;;;;;;;;;9.09;59.99;100259.88;5032008;28;19925;-85
2024/02/29 07:05:49;;;;;;;;;;;;;;;9.06;60.19;100263.63;5032387;28;19980;-83
2024/02/29 07:08:15;;;;;;;;;;;;;;;9.06;60.94;100252.28;5058334;28;19977;-83
2024/02/29 07:10:41;;;;;;;;;;;;;;;9.06;60.23;100260.16;5051876;28;19913;-84
2024/02/29 07:13:06;;;;;;;;;;;;;;;9.06;60.84;100257.53;5033321;28;19995;-83
2024/02/29 07:15:32;;;;;;;;;;;;;;;9.08;60.45;100252.94;5068949;28;19970;-83
2024/02/29 07:17:57;;;;;;;;;;;;;;;9.04;61.01;100252.41;5073244;28;19982;-84
2024/02/29 07:20:23;;;;;;;;;;;;;;;9.09;60.90;100251.97;5070679;28;19932;-83
2024/02/29 07:22:48;;;;;;;;;;;;;;;9.15;60.93;100249.56;5047862;28;19912;-83
2024/02/29 07:25:14;;;;;;;;;;;;;;;9.22;61.16;100252.41;5071268;28;20054;-83
2024/02/29 07:27:40;;;;;;;;;;;;;;;9.36;60.93;100251.03;5072705;28;20312;-83
2024/02/29 07:30:08;;;;;;;;;;;;;;;9.44;59.91;100246.66;5067135;28;20389;-82
2024/02/29 07:32:33;;;;;;;;;;;;;;;9.49;59.86;100257.56;5056759;28;20309;-83
2024/02/29 07:34:58;;;;;;;;;;;;;;;9.42;60.64;100253.06;5061129;28;19921;-83
2024/02/29 07:37:23;;;;;;;;;;;;;;;9.37;61.59;100257.97;5071538;28;19958;-83
2024/02/29 07:39:49;;;;;;;;;;;;;;;9.41;61.07;100254.88;5048588;28;19923;-82
2024/02/29 07:42:14;;;;;;;;;;;;;;;9.53;61.00;100250.19;5050480;28;19963;-82
2024/02/29 07:44:39;;;;;;;;;;;;;;;9.65;60.59;100250.75;5052807;28;20429;-83
2024/02/29 07:47:04;;;;;;;;;;;;;;;9.71;60.34;100251.00;5052342;28;19913;-82
2024/02/29 07:49:31;;;;;;;;;;;;;;;9.77;59.31;100247.72;5052679;28;20401;-83
2024/02/29 07:51:57;;;;;;;;;;;;;;;9.78;60.86;100251.19;5051558;28;19995;-82
2024/02/29 07:54:22;;;;;;;;;;;;;;;9.93;60.71;100249.63;5043374;28;19967;-82
2024/02/29 07:56:47;;;;;;;;;;;;;;;10.05;61.43;100251.03;5051475;28;19924;-83
2024/02/29 07:59:12;;;;;;;;;;;;;;;10.17;58.90;100241.84;5063217;28;20428;-82
2024/02/29 08:01:38;;;;;;;;;;;;;;;10.08;59.50;100244.59;5071894;28;19920;-83
2024/02/29 08:04:04;;;;;;;;;;;;;;;10.01;60.15;100239.13;5061601;28;19960;-83
2024/02/29 08:06:29;;;;;;;;;;;;;;;9.98;59.90;100238.63;5031070;28;19905;-83
2024/02/29 08:08:54;;;;;;;;;;;;;;;10.05;59.74;100244.91;5045708;28;19963;-84
2024/02/29 08:11:20;;;;;;;;;;;;;;;9.99;60.29;100241.09;5050777;28;19912;-82
2024/02/29 08:13:46;;;;;;;;;;;;;;;10.03;60.09;100241.59;5050840;28;19913;-84
2024/02/29 08:16:11;;;;;;;;;;;;;;;9.97;60.07;100240.44;5054143;28;19925;-84
2024/02/29 08:18:38;;;;;;;;;;;;;;;9.96;60.72;100237.94;5065948;28;19916;-83
2024/02/29 08:21:03;;;;;;;;;;;;;;;9.98;61.65;100234.16;5047285;28;19917;-83
2024/02/29 08:23:29;;;;;;;;;;;;;;;10.07;61.06;100242.94;5073404;28;20003;-82
2024/02/29 08:25:54;;;;;;;;;;;;;;;10.12;60.91;100244.13;5071811;28;19956;-83
2024/02/29 08:28:19;;;;;;;;;;;;;;;10.14;61.32;100242.16;5071801;28;19994;-83
2024/02/29 08:30:45;;;;;;;;;;;;;;;10.17;61.16;100239.19;5069838;28;19917;-83
2024/02/29 08:33:10;;;;;;;;;;;;;;;10.24;60.68;100238.59;5067409;28;19917;-83
2024/02/29 08:35:35;;;;;;;;;;;;;;;10.32;60.60;100233.34;5056403;28;19917;-82
2024/02/29 08:38:00;;;;;;;;;;;;;;;10.35;60.22;100239.13;5053467;28;19916;-83
2024/02/29 08:40:26;;;;;;;;;;;;;;;10.36;61.44;100235.50;5048117;28;19917;-83
2024/02/29 08:42:51;;;;;;;;;;;;;;;10.38;61.64;100244.09;5031637;28;19917;-83
2024/02/29 08:45:17;;;;;;;;;;;;;;;10.48;60.94;100241.34;5066356;28;19917;-83
2024/02/29 08:47:42;;;;;;;;;;;;;;;10.60;61.17;100233.97;5051480;28;19917;-83
2024/02/29 08:50:07;;;;;;;;;;;;;;;10.65;60.93;100236.94;5055140;28;19939;-82
2024/02/29 08:52:33;;;;;;;;;;;;;;;10.72;60.06;100225.56;5071132;28;20061;-82
2024/02/29 08:54:59;;;;;;;;;;;;;;;10.77;60.52;100225.09;5068505;28;20286;-82
2024/02/29 08:57:24;;;;;;;;;;;;;;;10.80;61.14;100228.22;5051382;28;19995;-88
2024/02/29 08:59:50;;;;;;;;;;;;;;;10.92;60.38;100231.38;5050056;28;20297;-83
2024/02/29 09:02:16;;;;;;;;;;;;;;;11.03;59.00;100230.22;5049714;28;19920;-83
2024/02/29 09:04:41;;;;;;;;;;;;;;;11.08;59.89;100231.41;5044049;28;20004;-82
2024/02/29 09:07:07;;;;;;;;;;;;;;;11.14;61.09;100236.03;5046434;28;20349;-83
2024/02/29 09:09:32;;;;;;;;;;;;;;;11.26;60.90;100220.69;5031058;28;19913;-83
2024/02/29 09:11:57;;;;;;;;;;;;;;;11.37;60.31;100220.34;5031217;28;19920;-83
2024/02/29 09:14:22;;;;;;;;;;;;;;;11.49;59.82;100217.34;5039184;28;19917;-82
2024/02/29 09:16:48;;;;;;;;;;;;;;;11.58;59.54;100225.13;5049957;28;20337;-82
2024/02/29 09:19:13;;;;;;;;;;;;;;;11.60;59.96;100220.47;5047470;28;19917;-82
2024/02/29 09:21:39;;;;;;;;;;;;;;;11.75;59.70;100225.91;5056668;28;19917;-82
2024/02/29 09:24:05;;;;;;;;;;;;;;;11.92;58.77;100219.63;5070946;28;19912;-82
2024/02/29 09:26:32;;;;;;;;;;;;;;;12.07;59.47;100217.09;5061392;28;20455;-82
2024/02/29 09:28:57;;;;;;;;;;;;;;;12.24;59.14;100218.69;5051309;28;20003;-82
2024/02/29 09:31:22;;;;;;;;;;;;;;;12.39;58.22;100214.31;5053507;28;19951;-82
2024/02/29 09:33:48;;;;;;;;;;;;;;;12.49;58.79;100206.16;5053770;28;19970;-81
2024/02/29 09:36:14;;;;;;;;;;;;;;;12.54;58.50;100209.09;5053864;28;19952;-81
2024/02/29 09:38:39;;;;;;;;;;;;;;;12.71;58.21;100205.38;5064271;28;19913;-82
2024/02/29 09:41:04;;;;;;;;;;;;;;;12.86;58.01;100207.28;5074863;28;19969;-82
2024/02/29 09:43:31;;;;;;;;;;;;;;;12.96;57.90;100197.25;5074874;28;19926;-82
2024/02/29 09:45:57;;;;;;;;;;;;;;;13.05;57.35;100188.25;5073254;28;19919;-82
2024/02/29 09:48:24;;;;;;;;;;;;;;;13.18;57.70;100185.84;5074622;28;19923;-82
2024/02/29 09:50:50;;;;;;;;;;;;;;;13.29;57.51;100190.72;5062166;28;20413;-81
2024/02/29 09:53:18;;;;;;;;;;;;;;;13.44;56.93;100184.63;5053650;28;20000;-82
2024/02/29 09:55:43;;;;;;;;;;;;;;;13.54;56.80;100188.69;5053171;28;20314;-82
2024/02/29 09:58:09;;;;;;;;;;;;;;;13.68;56.71;100177.25;5054665;28;19912;-82
2024/02/29 10:00:34;;;;;;;;;;;;;;;13.82;56.56;100180.91;5054451;28;19913;-82
2024/02/29 10:03:00;;;;;;;;;;;;;;;13.96;56.53;100181.91;5054409;28;19920;-82
2024/02/29 10:05:26;;;;;;;;;;;;;;;14.08;56.13;100174.31;5054523;28;19996;-82
2024/02/29 10:07:51;;;;;;;;;;;;;;;14.17;55.54;100175.88;5053091;28;19925;-82
2024/02/29 10:10:16;;;;;;;;;;;;;;;14.19;55.63;100176.50;5053288;28;20262;-82
2024/02/29 10:12:43;;;;;;;;;;;;;;;14.27;55.61;100173.75;5053377;28;19913;-82
2024/02/29 10:15:10;;;;;;;;;;;;;;;14.32;55.92;100163.38;5053175;28;19909;-82
2024/02/29 10:17:39;;;;;;;;;;;;;;;14.47;55.14;100155.41;5034656;28;19963;-82
2024/02/29 10:20:15;;;;;;;;;;;;;;;14.57;55.21;100158.56;5033735;28;19924;-83
2024/02/29 10:22:41;;;;;;;;;;;;;;;14.59;55.51;100153.91;5034362;28;19968;-82
2024/02/29 10:25:11;;;;;;;;;;;;;;;14.71;54.85;100140.94;5043185;28;20298;-82
2024/02/29 10:27:37;;;;;;;;;;;;;;;14.76;54.72;100142.00;5052762;28;20430;-82
2024/02/29 10:30:02;;;;;;;;;;;;;;;14.78;54.81;100150.59;5054157;28;19927;-82
2024/02/29 10:32:27;;;;;;;;;;;;;;;14.90;54.92;100127.00;5052665;28;19917;-82
2024/02/29 10:34:53;;;;;;;;;;;;;;;15.04;54.69;100127.94;5052559;28;19917;-81
2024/02/29 10:37:18;;;;;;;;;;;;;;;15.07;54.56;100117.75;5049343;28;19964;-82
2024/02/29 10:39:43;;;;;;;;;;;;;;;15.08;54.56;100115.91;5033873;28;20309;-82
2024/02/29 10:42:09;;;;;;;;;;;;;;;15.13;54.11;100114.31;5033190;28;19955;-81
2024/02/29 10:44:35;;;;;;;;;;;;;;;15.25;54.10;100099.47;5034525;28;19932;-82
2024/02/29 10:47:03;;;;;;;;;;;;;;;15.44;53.96;100091.78;5035163;28;19924;-81
2024/02/29 10:49:29;;;;;;;;;;;;;;;15.63;53.29;100082.34;5032398;28;19917;-81
2024/02/29 10:52:15;;;;;;;;;;;;;;;15.76;53.17;100091.19;5032959;28;20439;-81
2024/02/29 10:54:57;;;;;;;;;;;;;;;15.77;52.70;100079.53;5033367;28;20347;-81
2024/02/29 10:57:25;;;;;;;;;;;;;;;15.79;52.45;100072.16;5033645;28;20310;-82
2024/02/29 10:59:58;;;;;;;;;;;;;;;15.74;52.64;100071.13;5033111;28;19921;-81
2024/02/29 11:02:23;;;;;;;;;;;;;;;15.80;52.94;100065.81;5032523;28;20330;-82
2024/02/29 11:04:49;;;;;;;;;;;;;;;15.93;52.38;100067.72;5033168;28;19940;-82
2024/02/29 11:07:15;;;;;;;;;;;;;;;16.08;52.20;100068.38;5033317;28;20412;-82
2024/02/29 11:09:40;;;;;;;;;;;;;;;16.28;52.11;100059.59;5043759;28;19917;-80
2024/02/29 11:12:11;;;;;;;;;;;;;;;16.38;51.31;100057.38;5048945;28;19971;-79
2024/02/29 11:14:40;;;;;;;;;;;;;;;16.49;51.17;100046.13;5033596;28;19920;-81
2024/02/29 11:17:05;;;;;;;;;;;;;;;16.52;50.80;100043.88;5048612;28;20365;-80
2024/02/29 11:19:30;;;;;;;;;;;;;;;16.65;50.79;100044.91;5047831;28;19917;-80
2024/02/29 11:21:56;;;;;;;;;;;;;;;16.77;50.34;100038.78;5032849;28;19913;-80
2024/02/29 11:24:22;;;;;;;;;;;;;;;16.87;50.16;100035.69;5031668;28;19924;-80
2024/02/29 11:26:56;;;;;;;;;;;;;;;16.98;50.34;100034.22;5031621;28;19914;-80
2024/02/29 11:29:22;;;;;;;;;;;;;;;17.09;49.38;100026.44;5031518;28;19952;-80
2024/02/29 11:31:48;;;;;;;;;;;;;;;17.18;49.75;100019.03;5035899;28;19959;-80
2024/02/29 11:34:17;;;;;;;;;;;;;;;17.14;48.83;100018.63;5041988;28;19912;-80
2024/02/29 11:36:47;;;;;;;;;;;;;;;17.23;49.07;100013.88;5052568;28;19912;-81
2024/02/29 11:39:14;;;;;;;;;;;;;;;17.29;49.64;100014.91;5035388;28;19920;-80
2024/02/29 11:41:40;;;;;;;;;;;;;;;17.33;48.74;100006.25;5031569;28;20306;-80
2024/02/29 11:44:05;;;;;;;;;;;;;;;17.41;49.19;100011.38;5031733;28;19928;-81
2024/02/29 11:46:30;;;;;;;;;;;;;;;17.48;49.16;99996.13;5031221;28;20450;-81
2024/02/29 11:48:56;;;;;;;;;;;;;;;17.55;49.31;100001.44;5032385;28;19917;-81
2024/02/29 11:51:22;;;;;;;;;;;;;;;17.46;48.70;99997.38;5035200;28;19924;-79
2024/02/29 11:53:47;;;;;;;;;;;;;;;17.34;49.22;99988.41;5052302;28;19913;-80
2024/02/29 11:56:13;;;;;;;;;;;;;;;17.27;49.02;99990.28;5041492;28;20455;-80
2024/02/29 11:58:39;;;;;;;;;;;;;;;17.17;48.68;99993.38;5047135;28;20309;-83
2024/02/29 12:01:04;;;;;;;;;;;;;;;17.18;49.18;99980.84;5032089;28;19913;-82
2024/02/29 12:03:30;;;;;;;;;;;;;;;17.20;49.13;99984.94;5031038;28;19913;-81
2024/02/29 12:05:58;;;;;;;;;;;;;;;17.17;49.09;99979.22;5032542;28;19913;-81
2024/02/29 12:08:26;;;;;;;;;;;;;;;17.14;49.25;99969.78;5040644;28;19927;-79
2024/02/29 12:10:53;;;;;;;;;;;;;;;17.20;49.05;99960.94;5051269;28;19913;-81
2024/02/29 12:13:20;;;;;;;;;;;;;;;17.30;49.32;99960.50;5044259;28;19917;-81
2024/02/29 12:15:46;;;;;;;;;;;;;;;17.25;48.92;99957.63;5045197;28;19940;-80
2024/02/29 12:18:11;;;;;;;;;;;;;;;17.23;48.78;99949.03;5048554;28;19957;-81
2024/02/29 12:20:37;;;;;;;;;;;;;;;17.24;48.49;99942.66;5032384;28;20378;-81
2024/02/29 12:23:02;;;;;;;;;;;;;;;17.28;48.63;99933.19;5032230;28;19971;-81
2024/02/29 12:25:27;;;;;;;;;;;;;;;17.28;49.00;99927.84;5046872;28;20397;-81
2024/02/29 12:27:53;;;;;;;;;;;;;;;17.24;48.81;99927.47;5029995;28;20294;-81
2024/02/29 12:30:19;;;;;;;;;;;;;;;17.25;48.68;99922.94;5031403;28;19917;-81
2024/02/29 12:32:45;;;;;;;;;;;;;;;17.18;48.86;99920.31;5043704;28;20035;-81
2024/02/29 12:35:11;;;;;;;;;;;;;;;17.15;48.80;99915.38;5032749;28;19924;-81